createdAt,value
2023-11-19T00:00:54.199Z,9.23
2023-11-19T00:03:34.897Z,9.25
2023-11-19T00:06:05.943Z,9.16
2023-11-19T00:08:33.281Z,9.26
2023-11-19T00:11:00.453Z,9.41
2023-11-19T00:13:32.098Z,9.49
2023-11-19T00:15:59.140Z,9.43
2023-11-19T00:18:29.919Z,9.24
2023-11-19T00:20:57.554Z,9.08
2023-11-19T00:23:24.613Z,9.11
2023-11-19T00:25:51.937Z,9.07
2023-11-19T00:28:19.061Z,8.92
2023-11-19T00:30:47.429Z,9.02
2023-11-19T00:33:14.469Z,8.89
2023-11-19T00:35:41.491Z,8.83
2023-11-19T00:38:08.512Z,9.01
2023-11-19T00:40:39.763Z,8.95
2023-11-19T00:43:06.902Z,8.94
2023-11-19T00:45:33.961Z,8.98
2023-11-19T00:48:01.104Z,8.80
2023-11-19T00:50:28.242Z,8.85
2023-11-19T00:53:00.709Z,9.02
2023-11-19T00:55:27.983Z,9.10
2023-11-19T00:57:55.181Z,8.96
2023-11-19T01:00:25.829Z,9.07
2023-11-19T01:02:53.119Z,8.91
2023-11-19T01:05:23.933Z,8.93
2023-11-19T01:07:51.572Z,8.79
2023-11-19T01:10:20.325Z,8.86
2023-11-19T01:12:48.209Z,8.69
2023-11-19T01:15:16.399Z,8.77
2023-11-19T01:20:18.682Z,8.90
2023-11-19T01:22:46.320Z,8.86
2023-11-19T01:25:13.524Z,9.02
2023-11-19T01:27:40.596Z,8.95
2023-11-19T01:30:10.985Z,9.05
2023-11-19T01:32:38.184Z,9.05
2023-11-19T01:35:05.902Z,8.89
2023-11-19T01:37:33.650Z,8.76
2023-11-19T01:40:00.926Z,8.94
2023-11-19T01:42:31.178Z,8.99
2023-11-19T01:45:06.209Z,9.08
2023-11-19T01:47:36.200Z,9.11
2023-11-19T01:50:08.001Z,8.91
2023-11-19T01:52:42.814Z,9.08
2023-11-19T01:55:12.400Z,9.23
2023-11-19T01:57:42.376Z,9.12
2023-11-19T02:00:13.494Z,9.05
2023-11-19T02:02:49.699Z,9.09
2023-11-19T02:05:18.010Z,9.14
2023-11-19T02:07:45.397Z,9.20
2023-11-19T02:10:15.929Z,9.25
2023-11-19T02:12:44.647Z,8.84
2023-11-19T02:15:13.547Z,8.57
2023-11-19T02:17:40.697Z,8.72
2023-11-19T02:20:10.625Z,8.68
2023-11-19T02:22:45.228Z,8.61
2023-11-19T02:25:25.651Z,8.66
2023-11-19T02:28:04.483Z,8.77
2023-11-19T02:30:31.524Z,8.79
2023-11-19T02:33:02.806Z,8.76
2023-11-19T02:35:36.727Z,8.71
2023-11-19T02:38:05.594Z,8.74
2023-11-19T02:40:39.686Z,8.80
2023-11-19T02:43:07.020Z,8.80
2023-11-19T02:45:38.041Z,8.69
2023-11-19T02:48:08.298Z,8.66
2023-11-19T02:50:35.294Z,8.71
2023-11-19T02:53:02.579Z,8.71
2023-11-19T02:55:36.829Z,8.72
2023-11-19T02:58:09.393Z,8.73
2023-11-19T03:00:47.452Z,8.61
2023-11-19T03:03:22.217Z,8.69
2023-11-19T03:05:49.797Z,8.75
2023-11-19T03:10:52.640Z,8.76
2023-11-19T03:13:19.857Z,8.71
2023-11-19T03:15:49.885Z,8.71
2023-11-19T03:18:16.898Z,8.73
2023-11-19T03:20:43.995Z,8.45
2023-11-19T03:23:11.487Z,8.59
2023-11-19T03:25:45.149Z,8.57
2023-11-19T03:28:12.552Z,8.67
2023-11-19T03:30:39.690Z,8.79
2023-11-19T03:33:06.824Z,8.78
2023-11-19T03:35:34.625Z,8.86
2023-11-19T03:38:02.572Z,8.72
2023-11-19T03:40:31.142Z,8.62
2023-11-19T03:43:00.070Z,8.26
2023-11-19T03:45:27.372Z,8.13
2023-11-19T03:47:54.269Z,8.27
2023-11-19T03:50:24.486Z,8.36
2023-11-19T03:52:51.530Z,8.37
2023-11-19T03:55:18.817Z,8.16
2023-11-19T03:57:50.087Z,8.15
2023-11-19T04:00:22.499Z,8.25
2023-11-19T04:02:49.689Z,8.19
2023-11-19T04:05:20.328Z,8.31
2023-11-19T04:07:48.268Z,8.35
2023-11-19T04:10:18.036Z,8.43
2023-11-19T04:12:45.060Z,8.36
2023-11-19T04:15:13.264Z,8.19
2023-11-19T04:17:40.266Z,8.06
2023-11-19T04:20:18.459Z,8.14
2023-11-19T04:22:48.513Z,8.24
2023-11-19T04:25:16.711Z,8.27
2023-11-19T04:27:43.835Z,8.31
2023-11-19T04:30:12.673Z,8.21
2023-11-19T04:32:39.787Z,8.17
2023-11-19T04:35:08.248Z,8.26
2023-11-19T04:37:40.551Z,8.33
2023-11-19T04:40:11.379Z,8.39
2023-11-19T04:42:49.214Z,8.24
2023-11-19T04:45:21.592Z,8.26
2023-11-19T04:47:48.731Z,8.26
2023-11-19T04:50:17.162Z,8.30
2023-11-19T04:52:46.538Z,8.15
2023-11-19T04:55:15.727Z,8.26
2023-11-19T04:57:42.911Z,8.31
2023-11-19T05:02:43.008Z,8.34
2023-11-19T05:05:10.801Z,8.22
2023-11-19T05:07:37.897Z,8.24
2023-11-19T05:10:08.644Z,8.32
2023-11-19T05:12:38.455Z,8.27
2023-11-19T05:15:05.978Z,8.28
2023-11-19T05:17:33.005Z,8.25
2023-11-19T05:19:59.959Z,8.31
2023-11-19T05:22:31.324Z,8.37
2023-11-19T05:24:58.313Z,8.38
2023-11-19T05:27:27.747Z,8.29
2023-11-19T05:30:12.390Z,8.35
2023-11-19T05:32:39.593Z,8.20
2023-11-19T05:35:07.433Z,8.34
2023-11-19T05:37:36.370Z,8.27
2023-11-19T05:40:06.472Z,8.24
2023-11-19T05:42:36.461Z,8.29
2023-11-19T05:45:03.579Z,8.33
2023-11-19T05:47:31.947Z,8.42
2023-11-19T05:49:59.473Z,8.53
2023-11-19T05:52:26.427Z,8.47
2023-11-19T05:54:54.244Z,8.43
2023-11-19T05:57:29.551Z,8.47
2023-11-19T05:59:56.846Z,8.47
2023-11-19T06:02:23.847Z,8.54
2023-11-19T06:04:51.187Z,8.45
2023-11-19T06:07:18.458Z,8.41
2023-11-19T06:09:46.901Z,8.48
2023-11-19T06:12:15.496Z,8.53
2023-11-19T06:14:42.743Z,8.51
2023-11-19T06:17:12.156Z,8.56
2023-11-19T06:19:41.766Z,8.57
2023-11-19T06:22:08.785Z,8.53
2023-11-19T06:24:37.785Z,8.55
2023-11-19T06:27:08.436Z,8.52
2023-11-19T06:29:37.792Z,8.48
2023-11-19T06:32:14.813Z,8.46
2023-11-19T06:34:43.521Z,8.36
2023-11-19T06:37:10.744Z,8.43
2023-11-19T06:39:41.748Z,8.48
2023-11-19T06:42:08.801Z,8.30
2023-11-19T06:44:36.469Z,8.27
2023-11-19T06:47:03.655Z,8.31
2023-11-19T06:49:30.660Z,8.36
2023-11-19T06:51:58.196Z,8.37
2023-11-19T06:54:25.519Z,8.27
2023-11-19T06:56:53.860Z,8.22
2023-11-19T06:59:35.186Z,7.91
2023-11-19T07:02:02.283Z,8.13
2023-11-19T07:04:29.437Z,8.29
2023-11-19T07:06:56.697Z,8.31
2023-11-19T07:09:24.550Z,8.40
2023-11-19T07:11:55.171Z,8.46
2023-11-19T07:14:28.415Z,8.49
2023-11-19T07:16:57.666Z,8.53
2023-11-19T07:19:27.923Z,8.68
2023-11-19T07:21:56.112Z,8.72
2023-11-19T07:24:24.907Z,8.83
2023-11-19T07:26:52.481Z,8.89
2023-11-19T07:31:53.045Z,8.99
2023-11-19T07:34:21.355Z,9.04
2023-11-19T07:36:54.602Z,9.12
2023-11-19T07:39:22.499Z,9.21
2023-11-19T07:41:49.485Z,9.28
2023-11-19T07:44:16.531Z,9.33
2023-11-19T07:46:43.869Z,9.32
2023-11-19T07:49:11.737Z,9.43
2023-11-19T07:51:38.636Z,9.52
2023-11-19T07:54:05.874Z,9.59
2023-11-19T07:56:36.033Z,9.59
2023-11-19T07:59:08.517Z,9.57
2023-11-19T08:01:36.744Z,9.59
2023-11-19T08:04:09.231Z,9.77
2023-11-19T08:06:36.754Z,9.86
2023-11-19T08:09:06.778Z,10.02
2023-11-19T08:11:35.072Z,10.13
2023-11-19T08:14:05.522Z,10.26
2023-11-19T08:16:37.076Z,10.39
2023-11-19T08:19:04.685Z,10.47
2023-11-19T08:21:31.600Z,10.65
2023-11-19T08:24:00.239Z,10.66
2023-11-19T08:26:27.439Z,10.82
2023-11-19T08:28:56.986Z,10.74
2023-11-19T08:31:24.475Z,10.80
2023-11-19T08:33:51.387Z,10.94
2023-11-19T08:36:18.782Z,11.00
2023-11-19T08:38:46.471Z,11.16
2023-11-19T08:41:17.675Z,11.22
2023-11-19T08:43:46.106Z,11.30
2023-11-19T08:46:15.969Z,11.31
2023-11-19T08:48:42.968Z,11.42
2023-11-19T08:51:10.025Z,11.71
2023-11-19T08:53:37.825Z,11.96
2023-11-19T08:56:05.138Z,11.94
2023-11-19T08:58:32.579Z,12.01
2023-11-19T09:01:01.329Z,12.17
2023-11-19T09:03:29.711Z,12.19
2023-11-19T09:05:57.148Z,12.28
2023-11-19T09:08:24.158Z,12.31
2023-11-19T09:10:50.996Z,12.39
2023-11-19T09:13:20.361Z,12.52
2023-11-19T09:15:53.178Z,12.60
2023-11-19T09:18:20.260Z,12.68
2023-11-19T09:20:51.675Z,12.89
2023-11-19T09:23:18.619Z,12.95
2023-11-19T09:25:53.049Z,12.95
2023-11-19T09:28:20.055Z,13.12
2023-11-19T09:30:48.604Z,13.32
2023-11-19T09:33:23.212Z,13.24
2023-11-19T09:35:52.331Z,13.33
2023-11-19T09:38:20.781Z,13.40
2023-11-19T09:40:52.848Z,13.61
2023-11-19T09:43:22.240Z,13.64
2023-11-19T09:45:56.086Z,13.61
2023-11-19T09:48:34.678Z,13.64
2023-11-19T09:51:03.225Z,13.69
2023-11-19T09:53:32.239Z,13.75
2023-11-19T09:56:04.409Z,13.87
2023-11-19T09:58:34.463Z,13.84
2023-11-19T10:03:39.399Z,13.87
2023-11-19T10:06:15.565Z,13.80
2023-11-19T10:08:44.722Z,13.46
2023-11-19T10:11:14.769Z,13.43
2023-11-19T10:13:46.394Z,13.38
2023-11-19T10:16:16.758Z,13.25
2023-11-19T10:18:53.879Z,13.24
2023-11-19T10:21:20.760Z,13.05
2023-11-19T10:24:01.728Z,13.25
2023-11-19T10:26:30.552Z,13.22
2023-11-19T10:28:58.261Z,13.21
2023-11-19T10:31:26.716Z,13.21
2023-11-19T10:33:58.005Z,13.28
2023-11-19T10:36:39.933Z,13.38
2023-11-19T10:39:08.095Z,13.29
2023-11-19T10:41:35.273Z,13.32
2023-11-19T10:44:04.658Z,13.31
2023-11-19T10:46:42.306Z,13.39
2023-11-19T10:49:17.163Z,13.26
2023-11-19T10:51:47.836Z,13.28
2023-11-19T10:54:20.120Z,13.17
2023-11-19T10:57:01.950Z,13.34
2023-11-19T10:59:39.350Z,13.26
2023-11-19T11:02:15.967Z,13.28
2023-11-19T11:04:44.778Z,13.52
2023-11-19T11:07:11.945Z,13.45
2023-11-19T11:09:40.369Z,13.49
2023-11-19T11:12:08.810Z,13.50
2023-11-19T11:14:39.119Z,13.57
2023-11-19T11:17:11.648Z,13.72
2023-11-19T11:19:40.918Z,13.74
2023-11-19T11:22:09.932Z,13.67
2023-11-19T11:25:05.106Z,13.55
2023-11-19T11:28:18.530Z,13.48
2023-11-19T11:31:03.595Z,13.67
2023-11-19T11:33:34.087Z,13.91
2023-11-19T11:36:20.690Z,13.99
2023-11-19T11:38:56.916Z,14.06
2023-11-19T11:41:29.795Z,13.96
2023-11-19T11:43:57.977Z,13.91
2023-11-19T11:46:38.896Z,13.95
2023-11-19T11:49:06.903Z,14.01
2023-11-19T11:51:46.667Z,14.05
2023-11-19T11:54:19.973Z,14.17
2023-11-19T11:57:14.532Z,14.22
2023-11-19T11:59:47.813Z,14.20
2023-11-19T12:02:18.164Z,14.23
2023-11-19T12:04:51.560Z,14.48
2023-11-19T12:07:29.910Z,14.40
2023-11-19T12:10:21.699Z,14.40
2023-11-19T12:12:49.371Z,14.27
2023-11-19T12:15:18.619Z,14.26
2023-11-19T12:17:53.038Z,14.35
2023-11-19T12:22:57.246Z,14.50
2023-11-19T12:25:30.421Z,14.49
2023-11-19T12:28:10.335Z,14.64
2023-11-19T12:30:37.820Z,14.50
2023-11-19T12:33:12.768Z,14.46
2023-11-19T12:35:54.563Z,14.50
2023-11-19T12:38:26.637Z,14.51
2023-11-19T12:41:19.933Z,14.53
2023-11-19T12:46:30.485Z,14.58
2023-11-19T12:49:07.792Z,14.69
2023-11-19T12:51:38.241Z,14.79
2023-11-19T12:54:09.686Z,14.78
2023-11-19T12:56:46.702Z,14.75
2023-11-19T12:59:20.507Z,14.65
2023-11-19T13:02:07.547Z,14.65
2023-11-19T13:04:37.576Z,14.66
2023-11-19T13:07:10.989Z,14.69
2023-11-19T13:09:39.130Z,14.99
2023-11-19T13:12:22.172Z,14.80
2023-11-19T13:14:54.816Z,14.65
2023-11-19T13:17:22.902Z,14.71
2023-11-19T13:19:56.332Z,14.72
2023-11-19T13:22:32.064Z,14.88
2023-11-19T13:24:59.114Z,14.86
2023-11-19T13:27:30.018Z,14.81
2023-11-19T13:29:57.848Z,14.97
2023-11-19T13:32:29.089Z,14.98
2023-11-19T13:34:57.316Z,14.87
2023-11-19T13:37:27.182Z,14.89
2023-11-19T13:39:56.516Z,14.90
2023-11-19T13:42:31.444Z,14.91
2023-11-19T13:44:58.633Z,14.90
2023-11-19T13:47:25.730Z,14.82
2023-11-19T13:49:54.188Z,14.73
2023-11-19T13:52:21.314Z,14.68
2023-11-19T13:54:48.309Z,14.90
2023-11-19T13:57:15.247Z,14.88
2023-11-19T13:59:43.038Z,14.83
2023-11-19T14:02:10.197Z,14.81
2023-11-19T14:04:37.768Z,14.66
2023-11-19T14:07:04.926Z,14.61
2023-11-19T14:09:39.724Z,14.59
2023-11-19T14:12:06.775Z,14.66
2023-11-19T14:14:33.700Z,14.69
2023-11-19T14:19:31.036Z,14.67
2023-11-19T14:21:58.933Z,14.62
2023-11-19T14:24:27.299Z,14.69
2023-11-19T14:27:02.792Z,14.60
2023-11-19T14:29:34.571Z,14.55
2023-11-19T14:32:02.577Z,14.51
2023-11-19T14:34:33.722Z,14.58
2023-11-19T14:37:02.637Z,14.52
2023-11-19T14:39:37.650Z,14.48
2023-11-19T14:42:10.272Z,14.58
2023-11-19T14:44:37.745Z,14.48
2023-11-19T14:47:06.451Z,14.53
2023-11-19T14:49:34.018Z,14.54
2023-11-19T14:54:43.015Z,14.43
2023-11-19T14:57:17.510Z,14.30
2023-11-19T14:59:45.872Z,14.14
2023-11-19T15:02:20.568Z,14.13
2023-11-19T15:04:48.530Z,14.21
2023-11-19T15:07:15.628Z,14.36
2023-11-19T15:09:43.063Z,14.41
2023-11-19T15:12:10.561Z,14.30
2023-11-19T15:14:37.932Z,14.13
2023-11-19T15:17:09.471Z,14.11
2023-11-19T15:19:37.218Z,14.06
2023-11-19T15:22:14.018Z,14.12
2023-11-19T15:24:47.020Z,14.16
2023-11-19T15:27:15.301Z,14.10
2023-11-19T15:29:45.367Z,14.11
2023-11-19T15:32:18.951Z,14.05
2023-11-19T15:34:46.458Z,13.87
2023-11-19T15:37:26.350Z,13.88
2023-11-19T15:39:55.774Z,13.73
2023-11-19T15:42:29.902Z,13.65
2023-11-19T15:45:08.787Z,13.57
2023-11-19T15:47:47.789Z,13.44
2023-11-19T15:50:15.045Z,13.27
2023-11-19T15:52:42.742Z,13.10
2023-11-19T15:55:10.056Z,13.10
2023-11-19T15:57:39.046Z,13.08
2023-11-19T16:00:12.436Z,13.08
2023-11-19T16:02:49.908Z,12.98
2023-11-19T16:05:21.680Z,12.85
2023-11-19T16:08:02.367Z,12.87
2023-11-19T16:10:30.867Z,12.95
2023-11-19T16:13:03.592Z,12.68
2023-11-19T16:18:04.136Z,12.75
2023-11-19T16:20:32.800Z,12.77
2023-11-19T16:23:02.447Z,12.70
2023-11-19T16:25:29.741Z,12.59
2023-11-19T16:27:57.465Z,12.50
2023-11-19T16:30:30.796Z,12.42
2023-11-19T16:33:02.809Z,12.26
2023-11-19T16:35:35.936Z,12.17
2023-11-19T16:38:03.171Z,12.22
2023-11-19T16:40:30.273Z,12.45
2023-11-19T16:42:58.201Z,12.46
2023-11-19T16:45:29.056Z,12.48
2023-11-19T16:47:59.359Z,12.31
2023-11-19T16:50:31.434Z,12.29
2023-11-19T16:52:59.696Z,12.29
2023-11-19T16:55:27.113Z,12.30
2023-11-19T16:57:54.319Z,12.09
2023-11-19T17:03:03.865Z,12.26
2023-11-19T17:05:35.835Z,12.17
2023-11-19T17:08:03.816Z,12.21
2023-11-19T17:10:30.884Z,12.08
2023-11-19T17:13:02.445Z,12.12
2023-11-19T17:15:30.049Z,11.90
2023-11-19T17:17:57.767Z,11.92
2023-11-19T17:20:28.589Z,11.88
2023-11-19T17:22:57.328Z,11.77
2023-11-19T17:25:24.635Z,11.81
2023-11-19T17:27:52.917Z,11.75
2023-11-19T17:30:25.297Z,11.88
2023-11-19T17:32:52.448Z,11.83
2023-11-19T17:35:20.453Z,11.88
2023-11-19T17:37:56.068Z,11.93
2023-11-19T17:40:29.919Z,11.79
2023-11-19T17:42:57.088Z,11.69
2023-11-19T17:45:24.242Z,11.74
2023-11-19T17:47:51.296Z,11.77
2023-11-19T17:52:50.527Z,11.71
2023-11-19T17:55:17.581Z,11.69
2023-11-19T17:57:47.924Z,11.72
2023-11-19T18:00:16.293Z,11.62
2023-11-19T18:02:46.298Z,11.49
2023-11-19T18:05:13.796Z,11.56
2023-11-19T18:07:44.370Z,11.67
2023-11-19T18:10:12.435Z,11.64
2023-11-19T18:12:40.332Z,11.69
2023-11-19T18:15:08.746Z,11.53
2023-11-19T18:17:38.964Z,11.34
2023-11-19T18:20:09.312Z,11.38
2023-11-19T18:22:37.643Z,11.49
2023-11-19T18:25:05.916Z,11.24
2023-11-19T18:27:34.055Z,11.26
2023-11-19T18:30:01.857Z,11.35
2023-11-19T18:32:35.106Z,11.45
2023-11-19T18:35:11.110Z,11.57
2023-11-19T18:37:41.003Z,11.42
2023-11-19T18:40:15.204Z,11.40
2023-11-19T18:42:45.627Z,11.49
2023-11-19T18:45:22.800Z,11.35
2023-11-19T18:47:54.849Z,11.35
2023-11-19T18:50:26.348Z,11.29
2023-11-19T18:52:54.481Z,11.29
2023-11-19T18:55:26.067Z,11.31
2023-11-19T18:57:56.155Z,11.33
2023-11-19T19:00:27.965Z,11.28
2023-11-19T19:05:37.662Z,11.23
2023-11-19T19:08:06.456Z,11.17
2023-11-19T19:10:34.090Z,11.13
2023-11-19T19:13:04.141Z,11.03
2023-11-19T19:15:33.108Z,10.98
2023-11-19T19:18:00.809Z,11.03
2023-11-19T19:20:33.938Z,11.08
2023-11-19T19:23:02.523Z,11.00
2023-11-19T19:25:31.648Z,11.07
2023-11-19T19:28:22.685Z,11.06
2023-11-19T19:30:47.314Z,10.77
2023-11-19T19:33:17.193Z,10.76
2023-11-19T19:35:49.637Z,10.82
2023-11-19T19:38:17.162Z,10.91
2023-11-19T19:40:45.053Z,10.85
2023-11-19T19:43:13.800Z,10.76
2023-11-19T19:45:46.887Z,10.67
2023-11-19T19:48:17.747Z,10.91
2023-11-19T19:50:44.934Z,10.88
2023-11-19T19:53:13.506Z,10.62
2023-11-19T19:55:45.933Z,10.76
2023-11-19T19:58:16.812Z,10.85
2023-11-19T20:00:46.384Z,10.81
2023-11-19T20:03:15.082Z,10.67
2023-11-19T20:05:45.662Z,10.64
2023-11-19T20:08:13.861Z,10.58
2023-11-19T20:10:43.226Z,10.58
2023-11-19T20:13:14.629Z,10.66
2023-11-19T20:15:46.086Z,10.75
2023-11-19T20:18:15.551Z,10.65
2023-11-19T20:20:43.978Z,10.73
2023-11-19T20:23:11.311Z,10.64
2023-11-19T20:25:40.717Z,10.57
2023-11-19T20:28:10.668Z,10.37
2023-11-19T20:30:38.029Z,10.45
2023-11-19T20:33:05.267Z,10.55
2023-11-19T20:35:33.761Z,10.54
2023-11-19T20:38:03.416Z,10.40
2023-11-19T20:40:30.599Z,10.36
2023-11-19T20:42:57.833Z,10.41
2023-11-19T20:45:31.951Z,10.43
2023-11-19T20:47:59.889Z,10.39
2023-11-19T20:50:33.215Z,10.44
2023-11-19T20:53:03.065Z,10.44
2023-11-19T20:55:33.573Z,10.31
2023-11-19T20:58:02.911Z,10.32
2023-11-19T21:00:30.882Z,10.29
2023-11-19T21:02:59.828Z,10.32
2023-11-19T21:05:29.740Z,10.40
2023-11-19T21:07:56.796Z,10.32
2023-11-19T21:10:23.941Z,10.31
2023-11-19T21:12:51.551Z,10.40
2023-11-19T21:15:19.053Z,10.02
2023-11-19T21:17:49.331Z,10.03
2023-11-19T21:20:16.507Z,10.03
2023-11-19T21:22:44.046Z,10.18
2023-11-19T21:25:13.799Z,10.23
2023-11-19T21:27:42.786Z,10.16
2023-11-19T21:30:18.271Z,10.23
2023-11-19T21:32:45.336Z,10.21
2023-11-19T21:35:13.763Z,10.22
2023-11-19T21:37:41.167Z,10.16
2023-11-19T21:40:09.934Z,10.21
2023-11-19T21:42:37.876Z,10.25
2023-11-19T21:45:09.012Z,10.21
2023-11-19T21:47:36.644Z,10.01
2023-11-19T21:50:04.444Z,10.01
2023-11-19T21:52:38.741Z,10.13
2023-11-19T21:55:11.064Z,10.14
2023-11-19T21:57:39.457Z,10.04
2023-11-19T22:00:09.537Z,10.14
2023-11-19T22:02:37.147Z,9.98
2023-11-19T22:05:06.111Z,9.98
2023-11-19T22:07:36.580Z,10.08
2023-11-19T22:10:07.095Z,10.06
2023-11-19T22:12:34.354Z,10.06
2023-11-19T22:15:01.843Z,10.08
2023-11-19T22:17:29.124Z,10.08
2023-11-19T22:19:57.286Z,10.10
2023-11-19T22:22:24.378Z,10.10
2023-11-19T22:24:55.861Z,10.12
2023-11-19T22:27:23.017Z,10.09
2023-11-19T22:29:51.414Z,10.02
2023-11-19T22:34:51.512Z,9.97
2023-11-19T22:37:18.609Z,9.95
2023-11-19T22:39:47.769Z,10.04
2023-11-19T22:42:15.047Z,10.06
2023-11-19T22:44:42.156Z,9.99
2023-11-19T22:47:10.315Z,9.96
2023-11-19T22:49:38.381Z,9.87
2023-11-19T22:52:10.462Z,9.98
2023-11-19T22:54:37.993Z,9.95
2023-11-19T22:57:05.057Z,9.86
2023-11-19T22:59:32.715Z,9.85
2023-11-19T23:02:00.255Z,9.95
2023-11-19T23:04:27.399Z,9.91
2023-11-19T23:06:55.317Z,9.88
2023-11-19T23:09:25.586Z,9.90
2023-11-19T23:11:56.626Z,9.86
2023-11-19T23:14:24.913Z,9.90
2023-11-19T23:16:52.170Z,10.05
2023-11-19T23:19:21.609Z,10.04
2023-11-19T23:21:52.183Z,9.88
2023-11-19T23:24:19.248Z,9.86
2023-11-19T23:26:49.226Z,9.85
2023-11-19T23:29:37.688Z,9.95
2023-11-19T23:32:06.331Z,9.85
2023-11-19T23:37:05.102Z,9.72
2023-11-19T23:39:34.686Z,9.83
2023-11-19T23:42:04.934Z,9.75
2023-11-19T23:44:31.867Z,9.77
2023-11-19T23:46:58.994Z,9.77
2023-11-19T23:49:29.130Z,9.84
2023-11-19T23:51:56.253Z,9.81
2023-11-19T23:54:23.334Z,9.68
2023-11-19T23:56:53.298Z,9.87
2023-11-19T23:59:24.968Z,9.70
